Franklin, Louisiana
Current Conditions -  °F | °C
As of 3:15 PM on Sunday 23 Nov 2014 (Local Time) from KPTN Reporting Station
Few Clouds Few Clouds  
Wind Chill: 73°   Ceiling: Unl
Heat Index: 73°   Visibility: 10mi
Dew Point: 64°   Wind: 23mph
Humidity: 73%   Direction: 240°WSW
Pressure: 29.65"   Gusts: 29mph
Location:  29.79°N, 91.5°W
Report Text: KPTN 232115Z AUTO 24020G25KT 10SM FEW023 23/18 A2965 RMK AO1
Loading
Personal Weather Stations






























Interactive Weather Map New forecast layout! Learn more

10-Day Weather Forecast

Advertisements
Track Severe Weather on mobile